createdAt,value
2022-12-25T00:01:22.447Z,5.10
2022-12-25T00:03:49.854Z,5.25
2022-12-25T00:06:16.642Z,5.33
2022-12-25T00:08:43.872Z,5.57
2022-12-25T00:11:19.581Z,5.30
2022-12-25T00:13:46.932Z,4.80
2022-12-25T00:16:18.563Z,5.78
2022-12-25T00:18:46.135Z,5.80
2022-12-25T00:21:13.836Z,5.05
2022-12-25T00:23:40.831Z,4.35
2022-12-25T00:26:12.794Z,5.57
2022-12-25T00:28:39.457Z,6.75
2022-12-25T00:31:08.386Z,4.10
2022-12-25T00:33:38.666Z,6.28
2022-12-25T00:36:06.349Z,5.15
2022-12-25T00:38:34.371Z,3.78
2022-12-25T00:41:08.940Z,4.70
2022-12-25T00:43:36.487Z,6.10
2022-12-25T00:46:05.910Z,2.70
2022-12-25T00:48:33.626Z,4.70
2022-12-25T00:51:03.113Z,3.88
2022-12-25T00:53:30.381Z,4.53
2022-12-25T00:56:03.564Z,4.23
2022-12-25T00:58:32.295Z,4.03
2022-12-25T01:00:59.024Z,5.57
2022-12-25T01:03:26.469Z,6.38
2022-12-25T01:06:01.867Z,8.57
2022-12-25T01:08:30.896Z,4.97
2022-12-25T01:10:59.807Z,4.97
2022-12-25T01:13:27.564Z,5.75
2022-12-25T01:15:54.433Z,6.40
2022-12-25T01:18:23.363Z,6.05
2022-12-25T01:20:50.359Z,5.83
2022-12-25T01:23:17.065Z,5.10
2022-12-25T01:25:43.695Z,5.60
2022-12-25T01:28:10.305Z,6.13
2022-12-25T01:30:36.813Z,7.35
2022-12-25T01:33:03.604Z,7.20
2022-12-25T01:35:30.236Z,7.15
2022-12-25T01:37:56.918Z,6.68
2022-12-25T01:40:23.520Z,6.40
2022-12-25T01:42:50.149Z,5.85
2022-12-25T01:45:35.123Z,5.83
2022-12-25T01:48:05.977Z,5.95
2022-12-25T01:50:34.152Z,6.65
2022-12-25T01:53:00.835Z,6.38
2022-12-25T01:55:27.815Z,5.40
2022-12-25T01:57:54.866Z,8.67
2022-12-25T02:00:21.657Z,5.05
2022-12-25T02:02:49.104Z,5.78
2022-12-25T02:05:41.996Z,4.88
2022-12-25T02:08:11.560Z,4.65
2022-12-25T02:10:43.589Z,4.80
2022-12-25T02:13:13.214Z,4.70
2022-12-25T02:16:01.385Z,5.90
2022-12-25T02:18:37.307Z,5.18
2022-12-25T02:21:25.846Z,5.30
2022-12-25T02:23:55.172Z,4.57
2022-12-25T02:26:42.444Z,4.95
2022-12-25T02:29:26.966Z,6.20
2022-12-25T02:32:13.358Z,6.03
2022-12-25T02:34:45.664Z,6.05
2022-12-25T02:37:29.998Z,5.90
2022-12-25T02:40:09.272Z,5.63
2022-12-25T02:42:57.937Z,5.45
2022-12-25T02:46:06.882Z,5.57
2022-12-25T02:48:55.309Z,5.03
2022-12-25T02:51:45.824Z,6.23
2022-12-25T02:54:35.762Z,6.30
2022-12-25T02:57:26.259Z,6.03
2022-12-25T03:00:13.587Z,5.63
2022-12-25T03:03:01.783Z,6.97
2022-12-25T03:05:49.777Z,4.80
2022-12-25T03:08:20.211Z,4.65
2022-12-25T03:11:13.490Z,4.93
2022-12-25T03:13:44.782Z,5.03
2022-12-25T03:16:29.786Z,4.55
2022-12-25T03:18:57.775Z,4.47
2022-12-25T03:21:45.526Z,4.38
2022-12-25T03:24:30.618Z,5.40
2022-12-25T03:26:57.485Z,6.68
2022-12-25T03:29:48.902Z,5.90
2022-12-25T03:32:41.127Z,5.47
2022-12-25T03:35:44.221Z,5.57
2022-12-25T03:38:52.087Z,5.50
2022-12-25T03:41:44.531Z,5.30
2022-12-25T03:44:41.804Z,4.95
2022-12-25T03:47:39.159Z,5.33
2022-12-25T03:50:35.199Z,5.57
2022-12-25T03:53:25.908Z,5.57
2022-12-25T03:56:12.421Z,5.10
2022-12-25T03:59:13.002Z,5.35
2022-12-25T04:02:00.823Z,5.30
2022-12-25T04:04:47.861Z,5.20
2022-12-25T04:07:32.773Z,5.25
2022-12-25T04:10:18.377Z,5.43
2022-12-25T04:13:04.361Z,5.32
2022-12-25T04:15:49.498Z,5.00
2022-12-25T04:18:34.521Z,5.00
2022-12-25T04:21:19.618Z,5.28
2022-12-25T04:24:04.846Z,4.95
2022-12-25T04:27:03.733Z,5.13
2022-12-25T04:29:49.038Z,4.60
2022-12-25T04:32:34.277Z,5.13
2022-12-25T04:35:19.408Z,4.95
2022-12-25T04:37:46.023Z,4.68
2022-12-25T04:40:12.957Z,5.40
2022-12-25T04:42:39.691Z,4.73
2022-12-25T04:45:06.760Z,5.57
2022-12-25T04:47:33.744Z,5.65
2022-12-25T04:50:00.321Z,6.07
2022-12-25T04:52:26.986Z,6.90
2022-12-25T04:54:53.567Z,7.10
2022-12-25T04:57:20.136Z,4.80
2022-12-25T04:59:46.663Z,6.45
2022-12-25T05:02:13.453Z,5.60
2022-12-25T05:04:40.227Z,5.97
2022-12-25T05:07:06.759Z,6.37
2022-12-25T05:09:33.386Z,6.35
2022-12-25T05:12:00.009Z,5.25
2022-12-25T05:14:26.700Z,4.72
2022-12-25T05:16:53.467Z,4.65
2022-12-25T05:19:20.211Z,5.03
2022-12-25T05:21:46.729Z,4.80
2022-12-25T05:24:13.311Z,4.97
2022-12-25T05:26:39.894Z,4.30
2022-12-25T05:29:07.099Z,5.10
2022-12-25T05:31:33.877Z,5.43
2022-12-25T05:34:01.011Z,5.32
2022-12-25T05:36:28.032Z,6.18
2022-12-25T05:38:54.677Z,6.07
2022-12-25T05:41:21.277Z,5.78
2022-12-25T05:43:47.865Z,4.90
2022-12-25T05:46:14.809Z,5.40
2022-12-25T05:48:41.443Z,6.13
2022-12-25T05:51:10.993Z,5.40
2022-12-25T05:53:38.575Z,4.60
2022-12-25T05:56:07.485Z,4.67
2022-12-25T05:58:36.544Z,4.25
2022-12-25T06:01:03.734Z,3.90
2022-12-25T06:03:30.493Z,4.55
2022-12-25T06:05:57.169Z,4.60
2022-12-25T06:08:23.742Z,4.47
2022-12-25T06:10:50.288Z,3.60
2022-12-25T06:13:16.805Z,4.07
2022-12-25T06:15:43.483Z,3.80
2022-12-25T06:18:10.246Z,3.90
2022-12-25T06:20:40.691Z,3.60
2022-12-25T06:23:07.278Z,3.95
2022-12-25T06:25:34.101Z,3.60
2022-12-25T06:28:00.745Z,3.63
2022-12-25T06:30:27.469Z,3.80
2022-12-25T06:32:54.177Z,4.30
2022-12-25T06:35:20.993Z,3.70
2022-12-25T06:37:47.613Z,3.65
2022-12-25T06:40:14.243Z,3.80
2022-12-25T06:42:40.975Z,3.97
2022-12-25T06:45:08.051Z,4.37
2022-12-25T06:47:34.827Z,4.22
2022-12-25T06:50:01.465Z,3.90
2022-12-25T06:52:28.136Z,3.88
2022-12-25T06:54:54.748Z,3.83
2022-12-25T06:57:21.345Z,4.03
2022-12-25T06:59:54.570Z,4.13
2022-12-25T07:02:23.881Z,4.72
2022-12-25T07:04:51.739Z,5.50
2022-12-25T07:07:18.388Z,6.75
2022-12-25T07:09:44.964Z,6.17
2022-12-25T07:12:18.686Z,6.28
2022-12-25T07:14:48.970Z,6.15
2022-12-25T07:17:20.211Z,5.55
2022-12-25T07:19:47.052Z,5.75
2022-12-25T07:22:14.624Z,5.90
2022-12-25T07:24:41.452Z,5.18
2022-12-25T07:27:08.469Z,5.63
2022-12-25T07:29:35.326Z,5.18
2022-12-25T07:32:02.493Z,4.80
2022-12-25T07:34:29.366Z,5.43
2022-12-25T07:36:55.973Z,5.30
2022-12-25T07:39:23.699Z,5.72
2022-12-25T07:41:51.449Z,4.85
2022-12-25T07:44:18.546Z,5.35
2022-12-25T07:46:45.422Z,6.63
2022-12-25T07:49:12.628Z,5.45
2022-12-25T07:51:39.499Z,5.60
2022-12-25T07:54:06.666Z,5.93
2022-12-25T07:56:33.321Z,6.00
2022-12-25T07:58:59.957Z,6.63
2022-12-25T08:01:27.801Z,5.72
2022-12-25T08:03:57.446Z,7.43
2022-12-25T08:06:29.946Z,6.05
2022-12-25T08:09:08.570Z,6.78
2022-12-25T08:11:35.280Z,6.30
2022-12-25T08:14:01.940Z,6.82
2022-12-25T08:16:28.600Z,7.50
2022-12-25T08:18:55.168Z,5.78
2022-12-25T08:21:21.985Z,6.88
2022-12-25T08:23:48.688Z,6.63
2022-12-25T08:26:21.384Z,7.13
2022-12-25T08:28:48.832Z,7.45
2022-12-25T08:31:27.145Z,8.25
2022-12-25T08:33:55.772Z,8.70
2022-12-25T08:36:23.843Z,8.23
2022-12-25T08:38:50.732Z,8.73
2022-12-25T08:41:17.924Z,9.77
2022-12-25T08:43:44.785Z,7.97
2022-12-25T08:46:11.722Z,7.82
2022-12-25T08:48:42.132Z,7.93
2022-12-25T08:51:14.586Z,8.10
2022-12-25T08:53:42.841Z,8.52
2022-12-25T08:56:09.617Z,8.32
2022-12-25T08:58:36.626Z,11.00
2022-12-25T09:01:04.533Z,9.52
2022-12-25T09:03:34.822Z,8.93
2022-12-25T09:06:09.036Z,8.50
2022-12-25T09:08:38.878Z,6.72
2022-12-25T09:11:12.238Z,6.40
2022-12-25T09:13:39.144Z,7.50
2022-12-25T09:16:11.599Z,6.97
2022-12-25T09:18:38.717Z,7.03
2022-12-25T09:21:07.924Z,6.13
2022-12-25T09:23:35.117Z,5.25
2022-12-25T09:26:04.081Z,6.17
2022-12-25T09:28:30.780Z,4.72
2022-12-25T09:30:57.923Z,5.10
2022-12-25T09:33:25.054Z,5.65
2022-12-25T09:35:55.976Z,8.10
2022-12-25T09:38:23.501Z,6.30
2022-12-25T09:41:18.380Z,5.25
2022-12-25T09:44:10.864Z,5.22
2022-12-25T09:46:47.289Z,4.32
2022-12-25T09:49:35.574Z,5.45
2022-12-25T09:52:12.514Z,6.07
2022-12-25T09:55:05.166Z,6.10
2022-12-25T09:57:32.790Z,10.35
2022-12-25T09:59:59.613Z,7.25
2022-12-25T10:02:54.922Z,6.45
2022-12-25T10:06:01.675Z,6.57
2022-12-25T10:08:47.694Z,8.60
2022-12-25T10:11:14.198Z,6.50
2022-12-25T10:13:48.912Z,6.60
2022-12-25T10:16:36.933Z,5.93
2022-12-25T10:19:26.590Z,6.03
2022-12-25T10:21:58.571Z,6.00
2022-12-25T10:24:35.649Z,7.70
2022-12-25T10:27:07.750Z,6.75
2022-12-25T10:29:35.666Z,8.88
2022-12-25T10:32:02.239Z,6.80
2022-12-25T10:34:28.919Z,6.20
2022-12-25T10:36:55.774Z,6.78
2022-12-25T10:39:26.468Z,6.65
2022-12-25T10:42:08.538Z,8.20
2022-12-25T10:44:35.209Z,7.83
2022-12-25T10:47:03.978Z,19.40
2022-12-25T10:49:33.393Z,9.30
2022-12-25T10:52:01.373Z,7.55
2022-12-25T10:54:31.304Z,8.60
2022-12-25T10:56:57.924Z,10.03
2022-12-25T10:59:29.984Z,8.90
2022-12-25T11:02:11.430Z,9.65
2022-12-25T11:04:38.139Z,8.95
2022-12-25T11:07:13.077Z,9.73
2022-12-25T11:09:40.085Z,8.23
2022-12-25T11:12:07.140Z,10.05
2022-12-25T11:14:33.765Z,9.18
2022-12-25T11:17:10.070Z,9.63
2022-12-25T11:19:36.687Z,14.18
2022-12-25T11:22:05.151Z,9.60
2022-12-25T11:24:33.293Z,9.27
2022-12-25T11:27:04.449Z,9.05
2022-12-25T11:29:45.265Z,8.93
2022-12-25T11:32:34.825Z,10.75
2022-12-25T11:35:02.654Z,12.63
2022-12-25T11:37:40.577Z,9.80
2022-12-25T11:40:13.685Z,10.07
2022-12-25T11:42:44.091Z,10.43
2022-12-25T11:45:17.156Z,12.18
2022-12-25T11:47:57.251Z,9.70
2022-12-25T11:50:26.919Z,9.55
2022-12-25T11:52:55.281Z,8.98
2022-12-25T11:55:39.804Z,9.57
2022-12-25T11:58:17.839Z,10.70
2022-12-25T12:00:47.369Z,11.57
2022-12-25T12:03:24.023Z,11.23
2022-12-25T12:05:56.486Z,10.00
2022-12-25T12:08:23.163Z,10.50
2022-12-25T12:11:15.654Z,10.77
2022-12-25T12:14:01.224Z,10.87
2022-12-25T12:16:28.632Z,9.70
2022-12-25T12:18:55.326Z,9.80
2022-12-25T12:21:24.349Z,15.43
2022-12-25T12:23:54.356Z,11.20
2022-12-25T12:26:24.268Z,8.93
2022-12-25T12:28:53.622Z,10.50
2022-12-25T12:31:20.293Z,9.40
2022-12-25T12:33:58.322Z,9.77
2022-12-25T12:36:35.642Z,10.63
2022-12-25T12:39:04.979Z,10.77
2022-12-25T12:41:45.422Z,11.65
2022-12-25T12:44:13.844Z,10.18
2022-12-25T12:46:56.911Z,12.88
2022-12-25T12:49:24.285Z,13.32
2022-12-25T12:52:02.159Z,13.23
2022-12-25T12:54:28.956Z,10.70
2022-12-25T12:57:06.074Z,9.40
2022-12-25T12:59:46.130Z,9.93
2022-12-25T13:02:40.679Z,10.50
2022-12-25T13:05:22.831Z,10.30
2022-12-25T13:08:04.714Z,9.70
2022-12-25T13:10:36.068Z,10.50
2022-12-25T13:13:06.841Z,10.82
2022-12-25T13:15:35.160Z,10.57
2022-12-25T13:18:05.848Z,9.53
2022-12-25T13:20:55.816Z,11.85
2022-12-25T13:23:30.250Z,11.93
2022-12-25T13:26:01.928Z,11.18
2022-12-25T13:28:34.154Z,8.10
2022-12-25T13:31:12.845Z,8.17
2022-12-25T13:33:44.609Z,9.05
2022-12-25T13:36:13.302Z,9.23
2022-12-25T13:38:46.064Z,8.82
2022-12-25T13:41:39.864Z,8.45
2022-12-25T13:44:14.543Z,9.03
2022-12-25T13:46:41.169Z,8.68
2022-12-25T13:49:14.963Z,8.30
2022-12-25T13:51:41.588Z,8.60
2022-12-25T13:54:11.450Z,8.75
2022-12-25T13:56:38.137Z,10.03
2022-12-25T13:59:05.083Z,9.50
2022-12-25T14:01:31.914Z,10.10
2022-12-25T14:03:58.597Z,9.15
2022-12-25T14:06:30.533Z,7.93
2022-12-25T14:08:58.797Z,9.20
2022-12-25T14:11:29.240Z,8.77
2022-12-25T14:14:01.656Z,9.50
2022-12-25T14:16:28.748Z,10.15
2022-12-25T14:19:02.543Z,8.52
2022-12-25T14:21:32.447Z,9.10
2022-12-25T14:23:59.612Z,8.60
2022-12-25T14:26:32.676Z,8.35
2022-12-25T14:29:05.092Z,8.07
2022-12-25T14:31:33.145Z,8.45
2022-12-25T14:34:05.827Z,7.70
2022-12-25T14:36:33.803Z,8.38
2022-12-25T14:39:02.950Z,8.32
2022-12-25T14:41:37.623Z,8.50
2022-12-25T14:44:24.329Z,10.90
2022-12-25T14:46:51.064Z,8.80
2022-12-25T14:49:25.079Z,10.10
2022-12-25T14:51:51.989Z,10.20
2022-12-25T14:54:21.714Z,9.65
2022-12-25T14:56:50.193Z,11.55
2022-12-25T14:59:20.632Z,10.37
2022-12-25T15:01:59.407Z,12.20
2022-12-25T15:04:27.256Z,10.70
2022-12-25T15:07:01.212Z,9.68
2022-12-25T15:09:29.935Z,8.07
2022-12-25T15:11:56.864Z,9.53
2022-12-25T15:14:24.113Z,8.52
2022-12-25T15:16:53.676Z,10.45
2022-12-25T15:19:36.500Z,9.45
2022-12-25T15:22:04.075Z,9.55
2022-12-25T15:24:30.677Z,10.20
2022-12-25T15:27:00.172Z,10.15
2022-12-25T15:29:45.042Z,10.45
2022-12-25T15:32:17.598Z,10.40
2022-12-25T15:34:47.028Z,11.13
2022-12-25T15:37:14.382Z,9.43
2022-12-25T15:39:41.278Z,10.23
2022-12-25T15:42:16.182Z,10.75
2022-12-25T15:44:44.056Z,11.30
2022-12-25T15:47:12.588Z,12.27
2022-12-25T15:49:39.444Z,9.40
2022-12-25T15:52:08.527Z,9.15
2022-12-25T15:54:35.205Z,11.02
2022-12-25T15:57:04.408Z,11.75
2022-12-25T15:59:32.295Z,11.40
2022-12-25T16:02:01.264Z,12.93
2022-12-25T16:04:29.033Z,11.57
2022-12-25T16:06:58.374Z,10.13
2022-12-25T16:09:26.506Z,10.15
2022-12-25T16:11:53.641Z,15.30
2022-12-25T16:14:21.830Z,9.73
2022-12-25T16:16:48.718Z,10.13
2022-12-25T16:19:15.488Z,8.75
2022-12-25T16:21:46.420Z,9.15
2022-12-25T16:24:14.001Z,8.23
2022-12-25T16:26:40.648Z,7.33
2022-12-25T16:29:07.865Z,8.68
2022-12-25T16:31:36.644Z,8.52
2022-12-25T16:34:04.581Z,8.45
2022-12-25T16:36:31.373Z,9.05
2022-12-25T16:38:58.185Z,9.10
2022-12-25T16:41:25.021Z,7.63
2022-12-25T16:43:51.749Z,8.75
2022-12-25T16:46:21.567Z,8.95
2022-12-25T16:48:48.234Z,8.13
2022-12-25T16:51:18.559Z,8.80
2022-12-25T16:53:45.862Z,8.23
2022-12-25T16:56:18.173Z,8.18
2022-12-25T16:58:46.722Z,8.50
2022-12-25T17:01:19.037Z,9.77
2022-12-25T17:03:47.202Z,9.03
2022-12-25T17:06:26.819Z,9.05
2022-12-25T17:08:57.761Z,9.05
2022-12-25T17:11:27.366Z,9.05
2022-12-25T17:13:54.432Z,9.07
2022-12-25T17:16:24.843Z,10.57
2022-12-25T17:19:04.254Z,10.65
2022-12-25T17:21:34.939Z,9.88
2022-12-25T17:24:04.085Z,10.63
2022-12-25T17:26:32.366Z,8.95
2022-12-25T17:28:59.323Z,9.67
2022-12-25T17:31:26.075Z,9.48
2022-12-25T17:33:52.856Z,10.05
2022-12-25T17:36:21.654Z,9.80
2022-12-25T17:38:49.097Z,9.15
2022-12-25T17:41:17.443Z,9.63
2022-12-25T17:43:45.620Z,9.63
2022-12-25T17:46:18.100Z,12.98
2022-12-25T17:48:45.768Z,11.30
2022-12-25T17:51:16.255Z,11.48
2022-12-25T17:53:45.830Z,10.53
2022-12-25T17:56:13.378Z,11.43
2022-12-25T17:58:40.567Z,10.20
2022-12-25T18:01:09.784Z,10.90
2022-12-25T18:03:36.843Z,9.95
2022-12-25T18:06:05.356Z,10.17
2022-12-25T18:08:38.641Z,8.35
2022-12-25T18:11:13.581Z,9.60
2022-12-25T18:13:42.077Z,9.77
2022-12-25T18:16:09.340Z,8.98
2022-12-25T18:18:36.969Z,11.90
2022-12-25T18:21:05.074Z,9.07
2022-12-25T18:23:32.004Z,10.10
2022-12-25T18:26:03.920Z,8.55
2022-12-25T18:28:30.793Z,9.68
2022-12-25T18:30:57.550Z,9.40
2022-12-25T18:33:24.872Z,8.77
2022-12-25T18:35:57.780Z,8.77
2022-12-25T18:38:24.378Z,9.82
2022-12-25T18:40:51.366Z,8.50
2022-12-25T18:43:18.025Z,8.23
2022-12-25T18:45:44.700Z,7.45
2022-12-25T18:48:11.549Z,9.75
2022-12-25T18:50:39.870Z,9.27
2022-12-25T18:53:07.145Z,8.65
2022-12-25T18:55:33.725Z,8.37
2022-12-25T18:58:00.389Z,7.63
2022-12-25T19:00:28.017Z,6.90
2022-12-25T19:02:59.109Z,8.02
2022-12-25T19:05:26.439Z,8.88
2022-12-25T19:07:53.128Z,7.83
2022-12-25T19:10:19.724Z,8.10
2022-12-25T19:12:46.493Z,8.00
2022-12-25T19:15:13.175Z,7.78
2022-12-25T19:17:39.811Z,8.05
2022-12-25T19:20:07.115Z,8.40
2022-12-25T19:22:33.660Z,8.02
2022-12-25T19:25:00.365Z,7.93
2022-12-25T19:27:27.044Z,7.93
2022-12-25T19:29:53.604Z,8.00
2022-12-25T19:32:20.248Z,8.23
2022-12-25T19:34:46.812Z,9.35
2022-12-25T19:37:13.490Z,7.75
2022-12-25T19:39:45.901Z,7.97
2022-12-25T19:42:14.224Z,8.40
2022-12-25T19:44:41.156Z,8.63
2022-12-25T19:47:08.648Z,8.10
2022-12-25T19:49:35.385Z,6.82
2022-12-25T19:52:02.137Z,7.32
2022-12-25T19:54:29.484Z,8.23
2022-12-25T19:56:56.099Z,7.20
2022-12-25T19:59:22.971Z,7.07
2022-12-25T20:01:49.742Z,8.35
2022-12-25T20:04:18.063Z,8.23
2022-12-25T20:06:44.894Z,6.90
2022-12-25T20:09:15.091Z,8.13
2022-12-25T20:11:43.125Z,8.05
2022-12-25T20:14:13.021Z,8.20
2022-12-25T20:16:40.420Z,8.05
2022-12-25T20:19:07.876Z,8.15
2022-12-25T20:21:34.756Z,8.77
2022-12-25T20:24:01.636Z,9.32
2022-12-25T20:26:30.085Z,8.93
2022-12-25T20:28:57.408Z,8.20
2022-12-25T20:31:29.641Z,8.55
2022-12-25T20:33:58.589Z,9.60
2022-12-25T20:36:27.543Z,10.18
2022-12-25T20:38:58.002Z,9.68
2022-12-25T20:41:26.726Z,9.40
2022-12-25T20:43:54.857Z,9.98
2022-12-25T20:46:22.527Z,9.13
2022-12-25T20:48:49.516Z,8.48
2022-12-25T20:51:23.921Z,8.95
2022-12-25T20:53:51.510Z,8.60
2022-12-25T20:56:21.789Z,6.47
2022-12-25T20:58:53.274Z,9.00
2022-12-25T21:01:19.959Z,8.65
2022-12-25T21:03:46.621Z,9.07
2022-12-25T21:06:13.459Z,8.90
2022-12-25T21:08:41.006Z,9.30
2022-12-25T21:11:08.719Z,8.97
2022-12-25T21:13:37.782Z,8.43
2022-12-25T21:16:07.163Z,9.27
2022-12-25T21:18:33.860Z,8.48
2022-12-25T21:21:04.655Z,8.13
2022-12-25T21:23:31.804Z,8.63
2022-12-25T21:25:58.639Z,8.57
2022-12-25T21:28:30.088Z,9.70
2022-12-25T21:31:04.997Z,9.38
2022-12-25T21:33:50.779Z,9.45
2022-12-25T21:36:23.934Z,9.55
2022-12-25T21:38:59.285Z,8.80
2022-12-25T21:41:27.618Z,8.85
2022-12-25T21:43:55.239Z,8.23
2022-12-25T21:46:22.566Z,8.32
2022-12-25T21:48:49.712Z,8.77
2022-12-25T21:51:36.267Z,7.78
2022-12-25T21:54:03.866Z,9.23
2022-12-25T21:56:32.297Z,8.43
2022-12-25T21:59:00.903Z,9.57
2022-12-25T22:01:29.384Z,9.93
2022-12-25T22:03:57.204Z,9.15
2022-12-25T22:06:42.595Z,8.90
2022-12-25T22:09:09.633Z,8.02
2022-12-25T22:11:54.827Z,8.18
2022-12-25T22:14:52.511Z,9.13
2022-12-25T22:17:46.819Z,7.80
2022-12-25T22:20:19.778Z,7.90
2022-12-25T22:22:46.597Z,9.00
2022-12-25T22:25:13.671Z,8.18
2022-12-25T22:27:42.226Z,8.52
2022-12-25T22:30:18.230Z,8.00
2022-12-25T22:32:46.268Z,7.75
2022-12-25T22:35:13.716Z,7.80
2022-12-25T22:37:41.545Z,7.68
2022-12-25T22:40:10.348Z,7.85
2022-12-25T22:42:37.273Z,8.30
2022-12-25T22:45:04.734Z,7.88
2022-12-25T22:47:31.595Z,8.00
2022-12-25T22:49:59.037Z,7.85
2022-12-25T22:52:26.042Z,8.23
2022-12-25T22:54:52.701Z,9.23
2022-12-25T22:57:19.484Z,9.48
2022-12-25T22:59:46.069Z,9.05
2022-12-25T23:02:12.714Z,7.25
2022-12-25T23:04:39.373Z,7.47
2022-12-25T23:07:06.071Z,7.80
2022-12-25T23:09:32.715Z,7.72
2022-12-25T23:11:59.742Z,8.18
2022-12-25T23:14:39.313Z,7.00
2022-12-25T23:17:31.077Z,7.25
2022-12-25T23:20:18.026Z,6.63
2022-12-25T23:23:04.206Z,5.60
2022-12-25T23:25:49.814Z,6.60
2022-12-25T23:28:36.539Z,6.55
2022-12-25T23:31:03.247Z,6.88
2022-12-25T23:33:31.080Z,6.20
2022-12-25T23:35:57.724Z,5.78
2022-12-25T23:38:24.405Z,6.18
2022-12-25T23:40:51.165Z,6.32
2022-12-25T23:43:17.727Z,5.85
2022-12-25T23:45:44.494Z,6.25
2022-12-25T23:48:11.181Z,6.22
2022-12-25T23:50:37.697Z,5.97
2022-12-25T23:53:04.357Z,6.32
2022-12-25T23:55:30.951Z,6.25
2022-12-25T23:57:57.503Z,5.43
